LiveATC.Net - Listen to live air traffic control over the Internet!


ICAO: KCRQ  IATA: CLD   Airport: Mc Clellan-Palomar Airport
City: Carlsbad   State/Province: California
Country: United States   Continent: North America
KCRQ METAR Weather: KCRQ 181553Z AUTO 00000KT 6SM HZ BKN015 20/15 A2998 RMK AO2 SLP149 T02000150
KCRQ Flight Activity (FlightAware)
KCRQ Airport Info   (iFlightPlanner)
KCRQ VFR Sectional Chart   (iFlightPlanner) 
KCRQ IFR Low Chart   (iFlightPlanner) 

KCRQ Tower
Feed Status: UP   Listeners: 1
Listen in your browser - HTML5 player (in browser, HTML5)
Click here to listen with your own player (launches your MP3 player)
KCRQ Tower Audio Archives
FacilityFrequency
Palomar Tower118.600

NOTICE

Unauthorized use prohibited. See LiveATC.net Terms of Service


Find LiveATC Audio Streams


Airport/ARTCC Code

Frequency Search
(e.g., 124.400, 128.75)
Site-wide search
 


Browse LiveATC Feeds
Top 50 LiveATC Feeds
LiveATC Feed Map
Bad Weather Areas

LiveATC FAQ
Offer LiveATC feed
Contact LiveATC.net
Press Inquiries

LiveATC on iPhone
LiveATC on Android

Windows Phone
Windows 8/10

LiveATC Mobile
(Mobile browser)

ATC Audio Archives
Interesting Recordings

LiveATC Forums


Home Page
About LiveATC.net
Make a Donation
Terms of Use
Privacy Policy

Canadian Air Freqs

AIRMETs/SIGMETs

FAA Airport Status
Nat'l Airspace Status
Arrival Demand Charts


Server Software By:
Icecast.org
Liquidsoap